Time;durP1;ratioP1;P1;durP2;ratioP2;P2;SDS_P1;SDS_P2;PMS_P1;PMS_P2;Temp;Humidity;BMP_temperature;BMP_pressure;BME280_temperature;BME280_humidity;BME280_pressure;Samples;Min_cycle;Max_cycle;Signal;HPM_P1;HPM_P2
2021/05/28 00:02:18;;;;;;;8.73;4.32;;;12.60;99.90;;;;;;5082524;28;20202;-73
2021/05/28 00:04:44;;;;;;;8.85;3.97;;;12.60;99.90;;;;;;5083196;28;20985;-74
2021/05/28 00:07:10;;;;;;;12.32;4.95;;;12.50;99.90;;;;;;5067212;28;20670;-73
2021/05/28 00:09:39;;;;;;;8.98;4.30;;;12.50;99.90;;;;;;5100309;28;20202;-74
2021/05/28 00:12:06;;;;;;;9.35;4.20;;;12.50;99.90;;;;;;5085514;28;20194;-74
2021/05/28 00:14:33;;;;;;;7.88;4.28;;;12.50;99.90;;;;;;5066514;28;20248;-74
2021/05/28 00:16:59;;;;;;;9.98;4.32;;;12.50;99.90;;;;;;5085232;28;20205;-73
2021/05/28 00:19:26;;;;;;;14.05;4.90;;;12.50;99.90;;;;;;5083922;28;20737;-73
2021/05/28 00:21:52;;;;;;;9.20;4.75;;;12.50;99.90;;;;;;5087112;28;20201;-73
2021/05/28 00:24:19;;;;;;;12.52;4.45;;;12.60;99.90;;;;;;5086147;28;20190;-73
2021/05/28 00:26:47;;;;;;;8.68;4.90;;;12.60;99.90;;;;;;5082554;28;20226;-73
2021/05/28 00:29:13;;;;;;;8.10;4.47;;;12.50;99.90;;;;;;5066629;28;20206;-73
2021/05/28 00:31:40;;;;;;;7.50;4.40;;;12.50;99.90;;;;;;5100397;28;20258;-73
2021/05/28 00:34:07;;;;;;;9.45;4.38;;;12.50;99.90;;;;;;5083365;28;20209;-73
2021/05/28 00:36:34;;;;;;;10.02;4.40;;;12.50;99.90;;;;;;5084561;28;20202;-73
2021/05/28 00:39:00;;;;;;;12.82;5.07;;;12.50;99.90;;;;;;5083989;28;21062;-74
2021/05/28 00:41:27;;;;;;;10.57;4.90;;;12.50;99.90;;;;;;5099437;28;20204;-75
2021/05/28 00:43:54;;;;;;;10.02;5.13;;;12.50;99.90;;;;;;5083361;28;20366;-74
2021/05/28 00:46:26;;;;;;;10.23;5.13;;;12.50;99.90;;;;;;5087019;28;20194;-73
2021/05/28 00:48:53;;;;;;;12.98;5.55;;;12.60;99.90;;;;;;5084455;28;20724;-74
2021/05/28 00:51:20;;;;;;;10.82;5.25;;;12.50;99.90;;;;;;5083845;28;20196;-74
2021/05/28 00:53:47;;;;;;;9.65;4.95;;;12.50;99.90;;;;;;5080596;28;20252;-74
2021/05/28 00:56:14;;;;;;;12.63;5.20;;;12.50;99.90;;;;;;5079693;28;20197;-73
2021/05/28 00:58:41;;;;;;;11.77;5.53;;;12.50;99.90;;;;;;5083292;28;20194;-72
2021/05/28 01:01:09;;;;;;;11.02;5.55;;;12.50;99.90;;;;;;5084848;28;20198;-75
2021/05/28 01:03:35;;;;;;;12.43;5.90;;;12.40;99.90;;;;;;5084253;28;20255;-73
2021/05/28 01:06:02;;;;;;;11.75;5.75;;;12.40;99.90;;;;;;5067916;28;20212;-75
2021/05/28 01:08:30;;;;;;;11.10;6.15;;;12.40;99.90;;;;;;5084989;28;20204;-75
2021/05/28 01:10:56;;;;;;;11.88;5.63;;;12.40;99.90;;;;;;5084419;28;20209;-74
2021/05/28 01:13:22;;;;;;;13.30;6.03;;;12.40;99.90;;;;;;5084165;28;20691;-75
2021/05/28 01:15:49;;;;;;;14.55;6.88;;;12.30;99.90;;;;;;5082401;28;20285;-74
2021/05/28 01:18:16;;;;;;;12.70;6.55;;;12.30;99.90;;;;;;5085320;28;20231;-74
2021/05/28 01:20:43;;;;;;;9.80;6.22;;;12.40;99.90;;;;;;5081557;28;20540;-74
2021/05/28 01:23:10;;;;;;;11.77;6.70;;;12.40;99.90;;;;;;5086156;28;20665;-74
2021/05/28 01:25:37;;;;;;;11.73;6.88;;;12.40;99.90;;;;;;5082312;28;20202;-74
2021/05/28 01:28:03;;;;;;;13.05;6.82;;;12.40;99.90;;;;;;5086182;28;20687;-74
2021/05/28 01:30:30;;;;;;;18.08;6.95;;;12.40;99.90;;;;;;5079431;28;20288;-73
2021/05/28 01:32:57;;;;;;;16.60;6.70;;;12.40;99.90;;;;;;5083899;28;21039;-73
2021/05/28 01:35:24;;;;;;;10.95;6.68;;;12.40;99.90;;;;;;5084402;28;20276;-74
2021/05/28 01:37:50;;;;;;;11.35;6.38;;;12.40;99.90;;;;;;5085301;28;20198;-73
2021/05/28 01:40:20;;;;;;;12.77;6.95;;;12.40;99.90;;;;;;5083746;28;20217;-73
2021/05/28 01:42:47;;;;;;;16.02;6.95;;;12.40;99.90;;;;;;5083971;28;20210;-73
2021/05/28 01:45:14;;;;;;;10.77;7.55;;;12.40;99.90;;;;;;5083969;28;20222;-73
2021/05/28 01:47:41;;;;;;;13.10;7.53;;;12.40;99.90;;;;;;5082703;28;20190;-75
2021/05/28 01:50:10;;;;;;;12.77;6.93;;;12.40;99.90;;;;;;5084883;28;20697;-74
2021/05/28 01:52:37;;;;;;;13.90;7.55;;;12.40;99.90;;;;;;5065507;28;20209;-73
2021/05/28 01:55:05;;;;;;;11.05;6.55;;;12.30;99.90;;;;;;5083939;28;20666;-73
2021/05/28 01:57:32;;;;;;;13.30;7.07;;;12.20;99.90;;;;;;5084661;28;20673;-73
2021/05/28 01:59:59;;;;;;;16.15;6.78;;;12.20;99.90;;;;;;5082551;28;20202;-73
2021/05/28 02:02:26;;;;;;;14.07;7.05;;;12.20;99.90;;;;;;5068551;28;20213;-72
2021/05/28 02:04:52;;;;;;;10.90;6.90;;;12.10;99.90;;;;;;5080709;28;20205;-72
2021/05/28 02:07:18;;;;;;;12.95;7.20;;;12.10;99.90;;;;;;5068996;28;20230;-75
2021/05/28 02:09:45;;;;;;;13.15;7.30;;;12.10;99.90;;;;;;5066886;28;20300;-72
2021/05/28 02:12:11;;;;;;;12.18;6.88;;;12.00;99.90;;;;;;5084764;28;20195;-74
2021/05/28 02:14:39;;;;;;;14.65;7.90;;;12.00;99.90;;;;;;5085663;28;20214;-74
2021/05/28 02:17:06;;;;;;;12.60;7.20;;;12.00;99.90;;;;;;5068272;28;20267;-75
2021/05/28 02:19:32;;;;;;;;;;;11.90;99.90;;;;;;5085298;28;20208;-74
2021/05/28 02:21:59;;;;;;;;;;;11.90;99.90;;;;;;5087865;28;19958;-74
2021/05/28 02:24:25;;;;;;;;;;;11.90;99.90;;;;;;5087976;28;19960;-74
2021/05/28 02:26:55;;;;;;;14.88;8.02;;;11.80;99.90;;;;;;5089103;28;20379;-75
2021/05/28 02:29:22;;;;;;;16.10;7.30;;;11.80;99.90;;;;;;5084917;28;20250;-75
2021/05/28 02:31:50;;;;;;;14.63;7.78;;;11.80;99.90;;;;;;5086262;28;20235;-75
2021/05/28 02:34:16;;;;;;;13.93;7.90;;;11.70;99.90;;;;;;5084034;28;20227;-76
2021/05/28 02:36:43;;;;;;;15.27;7.65;;;11.80;99.90;;;;;;5085422;28;20676;-74
2021/05/28 02:39:10;;;;;;;15.00;8.38;;;11.70;99.90;;;;;;5086830;28;20220;-74
2021/05/28 02:41:36;;;;;;;15.07;7.45;;;11.70;99.90;;;;;;5086221;28;20208;-73
2021/05/28 02:44:04;;;;;;;14.93;8.13;;;11.70;99.90;;;;;;5084938;28;20233;-74
2021/05/28 02:46:33;;;;;;;18.88;8.40;;;11.60;99.90;;;;;;5087504;28;20654;-74
2021/05/28 02:49:01;;;;;;;14.00;8.20;;;11.60;99.90;;;;;;5085157;28;20216;-74
2021/05/28 02:51:27;;;;;;;14.30;8.25;;;11.60;99.90;;;;;;5086701;28;20205;-73
2021/05/28 02:53:53;;;;;;;16.13;8.70;;;11.60;99.90;;;;;;5083294;28;20671;-73
2021/05/28 02:56:20;;;;;;;13.98;8.00;;;11.50;99.90;;;;;;5068776;28;20205;-73
2021/05/28 02:58:47;;;;;;;15.02;8.23;;;11.50;99.90;;;;;;5084629;28;20292;-74
2021/05/28 03:01:13;;;;;;;11.98;8.20;;;11.40;99.90;;;;;;5086860;28;20728;-72
2021/05/28 03:03:40;;;;;;;16.50;8.27;;;11.40;99.90;;;;;;5085812;28;20212;-73
2021/05/28 03:06:07;;;;;;;17.05;8.93;;;11.30;99.90;;;;;;5086190;28;20255;-73
2021/05/28 03:08:34;;;;;;;15.55;8.40;;;11.30;99.90;;;;;;5084124;28;20282;-73
2021/05/28 03:11:00;;;;;;;18.10;8.68;;;11.30;99.90;;;;;;5085451;28;20288;-73
2021/05/28 03:13:27;;;;;;;12.38;8.65;;;11.30;99.90;;;;;;5069992;28;20251;-73
2021/05/28 03:15:53;;;;;;;14.52;8.15;;;11.20;99.90;;;;;;5087052;28;20194;-73
2021/05/28 03:18:22;;;;;;;16.30;8.27;;;11.20;99.90;;;;;;5086422;28;20198;-74
2021/05/28 03:20:51;;;;;;;16.48;9.05;;;11.20;99.90;;;;;;5067262;28;20201;-74
2021/05/28 03:23:19;;;;;;;16.15;8.90;;;11.20;99.90;;;;;;5082473;28;20211;-73
2021/05/28 03:25:45;;;;;;;14.13;8.85;;;11.10;99.90;;;;;;5085754;28;20194;-74
2021/05/28 03:28:12;;;;;;;19.95;8.95;;;11.10;99.90;;;;;;5067869;28;20202;-73
2021/05/28 03:30:39;;;;;;;19.73;9.30;;;11.10;99.90;;;;;;5067207;28;20661;-73
2021/05/28 03:33:06;;;;;;;17.25;9.93;;;11.00;99.90;;;;;;5068447;28;20201;-74
2021/05/28 03:35:33;;;;;;;18.92;9.27;;;11.10;99.90;;;;;;5087730;28;20214;-74
2021/05/28 03:37:59;;;;;;;16.67;9.45;;;11.00;99.90;;;;;;5087000;28;20217;-74
2021/05/28 03:40:26;;;;;;;14.50;8.73;;;10.90;99.90;;;;;;5084026;28;20198;-73
2021/05/28 03:42:53;;;;;;;15.00;9.10;;;10.90;99.90;;;;;;5087762;28;20201;-74
2021/05/28 03:45:19;;;;;;;21.45;9.73;;;10.80;99.90;;;;;;5067525;28;20578;-74
2021/05/28 03:47:46;;;;;;;26.33;16.45;;;10.70;99.90;;;;;;5065913;28;20209;-74
2021/05/28 03:50:13;;;;;;;21.17;12.60;;;10.70;99.90;;;;;;5084888;28;20277;-73
2021/05/28 03:52:39;;;;;;;18.20;11.15;;;10.70;99.90;;;;;;5087032;28;20201;-74
2021/05/28 03:55:07;;;;;;;16.00;10.40;;;10.70;99.90;;;;;;5102388;28;20308;-74
2021/05/28 03:57:34;;;;;;;17.63;11.38;;;10.70;99.90;;;;;;5067185;28;20198;-74
2021/05/28 04:00:00;;;;;;;19.42;11.07;;;10.70;99.90;;;;;;5086118;28;20206;-74
2021/05/28 04:02:27;;;;;;;14.30;10.20;;;10.70;99.90;;;;;;5080800;28;20761;-75
2021/05/28 04:04:53;;;;;;;17.90;10.20;;;10.70;99.90;;;;;;5083496;28;20327;-75
2021/05/28 04:07:20;;;;;;;21.25;11.30;;;10.70;99.90;;;;;;5063975;28;20394;-75
2021/05/28 04:09:46;;;;;;;18.00;10.27;;;10.60;99.90;;;;;;5065450;28;20198;-75
2021/05/28 04:12:13;;;;;;;18.40;10.60;;;10.60;99.90;;;;;;5085934;28;20214;-76
2021/05/28 04:14:40;;;;;;;19.42;10.80;;;10.60;99.90;;;;;;5085137;28;20399;-75
2021/05/28 04:17:06;;;;;;;23.15;10.82;;;10.60;99.90;;;;;;5083967;28;20191;-74
2021/05/28 04:19:33;;;;;;;20.13;11.05;;;10.60;99.90;;;;;;5085365;28;20266;-74
2021/05/28 04:21:59;;;;;;;22.80;13.43;;;10.60;99.90;;;;;;5065909;28;20207;-75
2021/05/28 04:24:26;;;;;;;20.10;12.73;;;10.60;99.90;;;;;;5086607;28;20194;-75
2021/05/28 04:26:52;;;;;;;25.52;11.52;;;10.60;99.90;;;;;;5082902;28;20217;-74
2021/05/28 04:29:20;;;;;;;18.10;10.40;;;10.60;99.90;;;;;;5085790;28;20201;-74
2021/05/28 04:31:47;;;;;;;21.67;10.98;;;10.60;99.90;;;;;;5080982;28;20943;-74
2021/05/28 04:34:13;;;;;;;18.52;9.30;;;10.60;99.90;;;;;;5085810;28;20292;-74
2021/05/28 04:36:40;;;;;;;15.80;9.10;;;10.70;99.90;;;;;;5082186;28;20190;-75
2021/05/28 04:39:06;;;;;;;13.73;8.65;;;10.70;99.90;;;;;;5068835;28;20198;-74
2021/05/28 04:41:33;;;;;;;;;;;10.70;99.90;;;;;;5085335;28;20208;-74
2021/05/28 04:43:59;;;;;;;;;;;10.80;99.90;;;;;;5086376;28;20322;-74
2021/05/28 04:46:26;;;;;;;;;;;10.80;99.90;;;;;;5081951;28;20015;-73
2021/05/28 04:48:54;;;;;;;;;;;10.80;99.90;;;;;;5085906;28;19965;-74
2021/05/28 04:51:20;;;;;;;;;;;10.80;99.90;;;;;;5083074;28;20308;-74
2021/05/28 04:53:46;;;;;;;;;;;10.80;99.90;;;;;;5085760;28;19963;-75
2021/05/28 04:56:12;;;;;;;16.90;9.38;;;10.80;99.90;;;;;;5082272;28;20186;-75
2021/05/28 04:58:39;;;;;;;18.30;9.75;;;10.80;99.90;;;;;;5085751;28;20259;-75
2021/05/28 05:01:05;;;;;;;15.70;10.10;;;10.90;99.90;;;;;;5081867;28;20248;-73
2021/05/28 05:03:32;;;;;;;17.58;10.63;;;10.90;99.90;;;;;;5086440;28;20262;-75
2021/05/28 05:05:59;;;;;;;16.02;10.48;;;10.90;99.90;;;;;;5082093;28;20676;-75
2021/05/28 05:08:26;;;;;;;19.45;11.57;;;10.90;99.90;;;;;;5083542;28;20198;-74
2021/05/28 05:10:52;;;;;;;;;;;10.90;99.90;;;;;;5075777;28;20257;-74
2021/05/28 05:13:18;;;;;;;;;;;10.90;99.90;;;;;;5083126;28;20369;-74
2021/05/28 05:15:44;;;;;;;;;;;11.00;99.90;;;;;;5086904;28;19963;-73
2021/05/28 05:18:10;;;;;;;;;;;11.00;99.90;;;;;;5084307;28;19975;-74
2021/05/28 05:20:37;;;;;;;;;;;11.00;99.90;;;;;;5083879;28;19960;-74
2021/05/28 05:23:04;;;;;;;;;;;11.00;99.90;;;;;;5083042;28;19963;-74
2021/05/28 05:25:31;;;;;;;;;;;11.10;99.90;;;;;;5084571;28;19961;-73
2021/05/28 05:27:57;;;;;;;;;;;11.10;99.90;;;;;;5085186;28;19956;-74
2021/05/28 05:30:23;;;;;;;;;;;11.10;99.90;;;;;;5086512;28;20043;-73
2021/05/28 05:32:49;;;;;;;;;;;11.10;99.90;;;;;;5080344;28;19990;-74
2021/05/28 05:35:16;;;;;;;;;;;11.10;99.90;;;;;;5101046;28;19956;-74
2021/05/28 05:37:42;;;;;;;;;;;11.10;99.90;;;;;;5085696;28;19960;-73
2021/05/28 05:40:11;;;;;;;;;;;11.20;99.90;;;;;;5065426;28;19963;-74
2021/05/28 05:42:38;;;;;;;;;;;11.20;99.90;;;;;;5083228;28;19957;-74
2021/05/28 05:45:05;;;;;;;;;;;11.20;99.90;;;;;;5082947;28;20328;-76
2021/05/28 05:47:32;;;;;;;;;;;11.20;99.90;;;;;;5088948;28;20083;-75
2021/05/28 05:49:58;;;;;;;;;;;11.30;99.90;;;;;;5092048;28;19961;-74
2021/05/28 05:52:24;;;;;;;;;;;11.30;99.90;;;;;;5093152;28;19961;-73
2021/05/28 05:54:51;;;;;;;;;;;11.40;99.90;;;;;;5105961;28;20488;-74
2021/05/28 05:57:18;;;;;;;;;;;11.40;99.90;;;;;;5090628;28;20329;-73
2021/05/28 05:59:44;;;;;;;;;;;11.40;99.90;;;;;;5092090;28;20395;-74
2021/05/28 06:02:11;;;;;;;24.13;14.50;;;11.40;99.90;;;;;;5091401;28;20705;-74
2021/05/28 06:04:37;;;;;;;21.23;11.85;;;11.40;99.90;;;;;;5092685;28;20193;-75
2021/05/28 06:07:04;;;;;;;18.98;11.02;;;11.50;99.90;;;;;;5091804;28;20495;-76
2021/05/28 06:09:30;;;;;;;18.08;11.30;;;11.50;99.90;;;;;;5072956;28;20215;-74
2021/05/28 06:11:58;;;;;;;18.45;11.05;;;11.50;99.90;;;;;;5091600;28;20367;-75
2021/05/28 06:14:25;;;;;;;24.13;9.80;;;11.50;99.90;;;;;;5088682;28;22008;-75
2021/05/28 06:16:52;;;;;;;20.42;9.88;;;11.60;99.90;;;;;;5091808;28;20190;-75
2021/05/28 06:19:18;;;;;;;15.43;8.95;;;11.60;99.90;;;;;;5106048;28;20289;-75
2021/05/28 06:21:45;;;;;;;18.25;8.60;;;11.60;99.90;;;;;;5089497;28;20351;-75
2021/05/28 06:24:12;;;;;;;16.02;8.00;;;11.60;99.90;;;;;;5091928;28;20661;-76
2021/05/28 06:26:38;;;;;;;18.02;8.93;;;11.70;99.90;;;;;;5090004;28;20607;-74
2021/05/28 06:29:07;;;;;;;17.35;9.27;;;11.70;99.90;;;;;;5072398;28;20198;-74
2021/05/28 06:31:35;;;;;;;19.65;9.85;;;11.70;99.90;;;;;;5070261;28;20206;-75
2021/05/28 06:34:02;;;;;;;23.58;10.20;;;11.70;99.90;;;;;;5090963;28;20218;-74
2021/05/28 06:36:29;;;;;;;15.82;10.38;;;11.80;99.90;;;;;;5089927;28;20564;-74
2021/05/28 06:38:55;;;;;;;19.02;10.02;;;11.80;99.90;;;;;;5090739;28;20657;-74
2021/05/28 06:41:22;;;;;;;21.65;10.32;;;11.80;99.90;;;;;;5090826;28;20197;-74
2021/05/28 06:43:49;;;;;;;20.73;10.27;;;11.80;99.90;;;;;;5087855;28;20591;-74
2021/05/28 06:46:16;;;;;;;16.17;10.25;;;11.80;99.90;;;;;;5072222;28;20213;-73
2021/05/28 06:48:43;;;;;;;20.33;10.32;;;11.90;99.90;;;;;;5091416;28;20212;-73
2021/05/28 06:51:10;;;;;;;19.77;10.50;;;11.90;99.90;;;;;;5101402;27;20205;-76
2021/05/28 06:53:36;;;;;;;21.85;11.35;;;11.90;99.90;;;;;;5091101;28;20205;-74
2021/05/28 06:56:03;;;;;;;22.95;10.38;;;11.90;99.90;;;;;;5072918;28;20251;-74
2021/05/28 06:58:30;;;;;;;19.25;11.40;;;11.90;99.90;;;;;;5090328;28;20204;-74
2021/05/28 07:00:57;;;;;;;20.90;11.52;;;11.90;99.90;;;;;;5087321;28;20193;-74
2021/05/28 07:03:23;;;;;;;18.30;11.40;;;11.90;99.90;;;;;;5088080;28;20218;-72
2021/05/28 07:05:51;;;;;;;17.13;11.93;;;12.00;99.90;;;;;;5089966;28;20198;-73
2021/05/28 07:08:17;;;;;;;21.38;12.88;;;12.00;99.90;;;;;;5091310;28;20212;-75
2021/05/28 07:10:44;;;;;;;21.58;13.20;;;12.00;99.90;;;;;;5102916;28;20816;-72
2021/05/28 07:13:11;;;;;;;21.73;13.20;;;12.10;99.90;;;;;;5071907;28;20113;-72
2021/05/28 07:15:38;;;;;;;23.80;13.30;;;12.00;99.90;;;;;;5088309;28;21014;-73
2021/05/28 07:18:05;;;;;;;23.73;11.70;;;12.10;99.90;;;;;;5089121;28;20197;-74
2021/05/28 07:20:32;;;;;;;17.98;12.15;;;12.10;99.90;;;;;;5088950;28;20202;-73
2021/05/28 07:23:00;;;;;;;23.55;12.45;;;12.10;99.90;;;;;;5089512;28;20572;-73
2021/05/28 07:25:26;;;;;;;21.45;12.02;;;12.20;99.90;;;;;;5087765;28;20666;-75
2021/05/28 07:27:52;;;;;;;;;;;12.20;99.90;;;;;;5087388;28;20247;-74
2021/05/28 07:30:19;;;;;;;21.90;12.82;;;12.30;99.90;;;;;;5079392;28;20515;-74
2021/05/28 07:32:46;;;;;;;23.07;12.63;;;12.40;99.90;;;;;;5080831;28;20639;-74
2021/05/28 07:35:13;;;;;;;24.30;13.20;;;12.40;99.90;;;;;;5087449;28;20007;-74
2021/05/28 07:37:40;;;;;;;21.40;13.10;;;12.50;99.90;;;;;;5081830;28;20532;-73
2021/05/28 07:40:09;;;;;;;25.90;13.65;;;12.50;99.90;;;;;;5071049;28;20206;-74
2021/05/28 07:42:36;;;;;;;21.25;13.60;;;12.50;99.90;;;;;;5087714;28;20272;-74
2021/05/28 07:45:04;;;;;;;23.88;14.43;;;12.60;99.90;;;;;;5067579;28;20236;-73
2021/05/28 07:47:31;;;;;;;21.48;14.05;;;12.60;99.90;;;;;;5086625;28;20722;-73
2021/05/28 07:49:57;;;;;;;27.92;15.32;;;12.70;99.90;;;;;;5084032;28;20255;-74
2021/05/28 07:52:23;;;;;;;25.95;14.77;;;12.70;99.90;;;;;;5090036;28;20224;-74
2021/05/28 07:54:50;;;;;;;;;;;12.80;99.90;;;;;;5085693;28;20266;-74
2021/05/28 07:57:17;;;;;;;;;;;12.80;99.90;;;;;;5089052;28;20475;-74
2021/05/28 07:59:43;;;;;;;;;;;12.90;99.90;;;;;;5070849;28;19965;-74
2021/05/28 08:02:09;;;;;;;;;;;12.90;99.90;;;;;;5088108;28;19956;-73
2021/05/28 08:04:35;;;;;;;;;;;13.00;99.90;;;;;;5085454;28;19962;-74
2021/05/28 08:07:01;;;;;;;;;;;13.00;99.90;;;;;;5084789;28;19958;-73
2021/05/28 08:09:28;;;;;;;24.13;12.55;;;13.00;99.90;;;;;;5084777;28;20063;-73
2021/05/28 08:11:54;;;;;;;18.63;11.55;;;13.10;99.90;;;;;;5087548;28;20197;-73
2021/05/28 08:14:21;;;;;;;18.42;12.00;;;13.10;99.90;;;;;;5084026;28;20320;-73
2021/05/28 08:16:48;;;;;;;18.65;11.93;;;13.20;99.90;;;;;;5084018;28;20220;-73
2021/05/28 08:19:14;;;;;;;20.50;12.20;;;13.30;99.90;;;;;;5082973;28;20205;-73
2021/05/28 08:21:40;;;;;;;;;;;13.30;99.90;;;;;;5086212;28;20570;-73
2021/05/28 08:24:07;;;;;;;16.77;11.43;;;13.40;99.90;;;;;;5083592;28;19983;-74
2021/05/28 08:26:33;;;;;;;17.58;11.05;;;13.40;99.90;;;;;;5083844;28;20248;-74
2021/05/28 08:29:00;;;;;;;25.85;13.77;;;13.50;99.90;;;;;;5083494;28;20213;-74
2021/05/28 08:31:28;;;;;;;25.60;14.15;;;13.50;99.90;;;;;;5084218;28;20259;-74
2021/05/28 08:33:55;;;;;;;21.45;13.05;;;13.60;99.90;;;;;;5083890;28;20210;-74
2021/05/28 08:36:22;;;;;;;21.15;12.40;;;13.70;99.90;;;;;;5082158;28;20614;-75
2021/05/28 08:38:49;;;;;;;19.25;12.00;;;13.70;99.90;;;;;;5083008;28;20199;-74
2021/05/28 08:41:16;;;;;;;19.92;11.55;;;13.80;99.90;;;;;;5083770;28;20529;-74
2021/05/28 08:43:43;;;;;;;17.63;10.83;;;13.80;99.90;;;;;;5079122;28;20809;-74
2021/05/28 08:46:12;;;;;;;;;;;13.90;99.90;;;;;;5084203;28;20442;-73
2021/05/28 08:48:39;;;;;;;;;;;13.90;99.90;;;;;;5080647;28;20509;-74
2021/05/28 08:51:05;;;;;;;;;;;14.00;99.90;;;;;;5085115;28;19954;-76
2021/05/28 08:53:32;;;;;;;;;;;14.00;99.90;;;;;;5063004;28;19984;-74
2021/05/28 08:55:58;;;;;;;;;;;14.10;99.90;;;;;;5083801;28;19958;-74
2021/05/28 08:58:26;;;;;;;;;;;14.10;99.90;;;;;;5085861;28;19960;-75
2021/05/28 09:00:52;;;;;;;;;;;14.20;99.90;;;;;;5087908;28;21754;-75
2021/05/28 09:03:19;;;;;;;;;;;14.20;99.90;;;;;;5082194;28;19965;-74
2021/05/28 09:05:48;;;;;;;;;;;14.20;99.90;;;;;;5086149;28;19962;-74
2021/05/28 09:08:14;;;;;;;14.32;8.73;;;14.30;99.90;;;;;;5098698;28;20188;-74
2021/05/28 09:10:42;;;;;;;11.95;8.05;;;14.30;99.90;;;;;;5078402;28;20282;-73
2021/05/28 09:13:09;;;;;;;;;;;14.40;99.90;;;;;;5085040;28;20178;-74
2021/05/28 09:15:35;;;;;;;;;;;14.50;99.90;;;;;;5085964;28;20025;-74
2021/05/28 09:18:01;;;;;;;;;;;14.60;99.90;;;;;;5084656;28;20055;-74
2021/05/28 09:20:28;;;;;;;10.70;6.63;;;14.70;99.90;;;;;;5100599;28;19964;-74
2021/05/28 09:23:14;;;;;;;10.25;5.82;;;14.70;99.60;;;;;;5085297;28;20209;-75
2021/05/28 09:25:57;;;;;;;11.13;4.35;;;14.80;99.20;;;;;;5087574;28;20221;-74
2021/05/28 09:28:24;;;;;;;14.20;6.70;;;14.90;98.70;;;;;;5086774;28;20186;-73
2021/05/28 09:30:56;;;;;;;12.43;6.88;;;15.00;98.10;;;;;;5088134;28;20201;-74
2021/05/28 09:33:23;;;;;;;9.98;5.40;;;15.00;97.60;;;;;;5088413;28;20194;-74
2021/05/28 09:35:50;;;;;;;12.45;5.82;;;15.00;97.10;;;;;;5089202;28;20773;-74
2021/05/28 09:38:24;;;;;;;4.65;3.40;;;15.10;96.80;;;;;;5085263;28;20225;-74
2021/05/28 09:40:51;;;;;;;6.32;2.70;;;15.10;96.20;;;;;;5088456;28;20267;-74
2021/05/28 09:43:25;;;;;;;4.10;2.95;;;15.10;95.60;;;;;;5084044;28;20206;-74
2021/05/28 09:45:52;;;;;;;7.22;4.15;;;15.20;95.00;;;;;;5087999;28;20233;-74
2021/05/28 09:48:27;;;;;;;8.05;4.60;;;15.20;94.50;;;;;;5090225;28;20199;-74
2021/05/28 09:50:55;;;;;;;6.00;4.20;;;15.20;94.20;;;;;;5084001;28;20195;-74
2021/05/28 09:53:28;;;;;;;10.45;4.30;;;15.30;94.10;;;;;;5068733;28;20239;-74
2021/05/28 09:55:54;;;;;;;6.45;3.60;;;15.30;94.00;;;;;;5089025;28;20302;-74
2021/05/28 09:58:22;;;;;;;7.10;2.90;;;15.40;93.70;;;;;;5089314;28;20202;-74
2021/05/28 10:00:48;;;;;;;9.10;4.28;;;15.50;93.30;;;;;;5088203;28;20278;-74
2021/05/28 10:03:16;;;;;;;11.15;5.10;;;15.50;92.70;;;;;;5088276;28;20228;-73
2021/05/28 10:05:44;;;;;;;13.07;5.43;;;15.60;92.50;;;;;;5086544;28;20206;-74
2021/05/28 10:08:12;;;;;;;7.72;4.45;;;15.60;92.40;;;;;;5087494;28;20198;-73
2021/05/28 10:10:41;;;;;;;9.85;5.30;;;15.70;92.30;;;;;;5086715;28;20656;-74
2021/05/28 10:13:12;;;;;;;7.07;5.03;;;15.80;92.20;;;;;;5084268;28;20202;-74
2021/05/28 10:15:40;;;;;;;10.55;5.10;;;15.90;92.10;;;;;;5088587;28;20222;-73
2021/05/28 10:18:07;;;;;;;12.90;5.57;;;16.00;92.10;;;;;;5085316;28;20207;-74
2021/05/28 10:20:34;;;;;;;10.85;5.85;;;16.10;92.00;;;;;;5086261;28;20213;-74
2021/05/28 10:23:00;;;;;;;9.88;5.93;;;16.10;91.90;;;;;;5085325;28;20259;-74
2021/05/28 10:25:27;;;;;;;8.20;5.10;;;16.30;91.90;;;;;;5088856;28;20193;-74
2021/05/28 10:27:56;;;;;;;14.30;6.50;;;16.30;91.70;;;;;;5068604;28;20206;-76
2021/05/28 10:30:26;;;;;;;7.90;5.18;;;16.40;91.80;;;;;;5086345;28;20197;-75
2021/05/28 10:33:11;;;;;;;;;;;16.50;91.80;;;;;;5069099;28;20062;-75
2021/05/28 10:35:44;;;;;;;7.57;4.38;;;16.60;91.80;;;;;;5083822;28;20215;-75
2021/05/28 10:38:55;;;;;;;5.80;3.80;;;16.70;91.80;;;;;;5099752;28;20209;-75
2021/05/28 10:41:36;;;;;;;6.72;4.32;;;16.90;91.60;;;;;;5086503;28;20285;-74
2021/05/28 10:44:19;;;;;;;8.88;5.43;;;17.00;91.40;;;;;;5068620;28;20221;-75
2021/05/28 10:46:52;;;;;;;;;;;17.20;91.10;;;;;;5087853;28;20224;-75
2021/05/28 10:49:19;;;;;;;6.50;4.47;;;17.30;90.70;;;;;;5085564;28;21913;-75
2021/05/28 10:52:07;;;;;;;10.63;4.55;;;17.50;90.10;;;;;;5091119;28;20197;-75
2021/05/28 10:54:42;;;;;;;5.55;3.00;;;17.60;89.10;;;;;;5067154;28;20238;-74
2021/05/28 10:57:34;;;;;;;5.68;3.70;;;17.70;88.10;;;;;;5083839;28;20255;-74
2021/05/28 11:00:07;;;;;;;7.70;3.90;;;17.80;85.30;;;;;;5085525;28;20763;-74
2021/05/28 11:02:53;;;;;;;7.93;4.35;;;18.30;77.50;;;;;;5083212;28;20785;-74
2021/05/28 11:05:38;;;;;;;7.55;3.35;;;18.70;75.00;;;;;;5082828;28;20923;-74
2021/05/28 11:08:24;;;;;;;6.50;3.20;;;19.00;72.70;;;;;;5067565;28;20418;-74
2021/05/28 11:10:51;;;;;;;5.43;3.00;;;19.20;69.60;;;;;;5085623;28;20511;-74
2021/05/28 11:13:17;;;;;;;5.75;3.00;;;19.40;64.50;;;;;;5086941;28;20432;-75
2021/05/28 11:15:57;;;;;;;6.23;3.20;;;19.50;61.70;;;;;;5083202;28;20436;-75
2021/05/28 11:18:30;;;;;;;6.50;3.00;;;19.50;64.40;;;;;;5082532;28;20422;-75
2021/05/28 11:21:15;;;;;;;6.20;3.90;;;19.60;66.70;;;;;;5087887;28;20438;-74
2021/05/28 11:23:44;;;;;;;6.80;3.30;;;19.70;66.30;;;;;;5084374;28;20426;-75
2021/05/28 11:26:23;;;;;;;5.68;2.85;;;19.90;67.20;;;;;;5086686;28;20470;-74
2021/05/28 11:28:52;;;;;;;6.70;2.72;;;20.00;66.80;;;;;;5083313;28;20434;-74
2021/05/28 11:31:22;;;;;;;4.07;2.40;;;20.10;61.10;;;;;;5086033;28;20428;-74
2021/05/28 11:33:55;;;;;;;5.43;2.63;;;20.20;58.30;;;;;;5081769;28;20459;-74
2021/05/28 11:36:40;;;;;;;5.80;2.83;;;20.40;59.80;;;;;;5087309;28;21003;-74
2021/05/28 11:39:09;;;;;;;5.07;3.00;;;20.50;62.90;;;;;;5084399;28;20421;-74
2021/05/28 11:41:43;;;;;;;5.55;3.35;;;20.60;62.60;;;;;;5068391;28;20443;-75
2021/05/28 11:44:11;;;;;;;5.68;3.63;;;20.80;63.40;;;;;;5099986;28;20437;-74
2021/05/28 11:46:42;;;;;;;6.45;3.50;;;20.90;62.30;;;;;;5067303;28;20438;-73
2021/05/28 11:49:09;;;;;;;6.70;4.05;;;21.10;62.70;;;;;;5084083;28;20428;-74
2021/05/28 11:51:35;;;;;;;7.07;4.10;;;21.20;60.60;;;;;;5086489;28;20430;-74
2021/05/28 11:54:16;;;;;;;6.03;3.75;;;21.40;60.50;;;;;;5084494;28;20423;-74
2021/05/28 11:56:42;;;;;;;9.57;4.00;;;21.40;59.70;;;;;;5084478;28;20421;-74
2021/05/28 11:59:09;;;;;;;10.35;4.22;;;21.50;62.30;;;;;;5083373;28;20427;-74
2021/05/28 12:01:44;;;;;;;10.68;3.85;;;21.50;67.60;;;;;;5086192;28;20429;-74
2021/05/28 12:04:16;;;;;;;8.97;3.70;;;21.60;69.70;;;;;;5069819;28;20483;-74
2021/05/28 12:06:42;;;;;;;8.68;3.67;;;21.60;69.70;;;;;;5082485;28;20436;-74
2021/05/28 12:09:09;;;;;;;7.82;3.50;;;21.50;70.00;;;;;;5085003;28;20438;-74
2021/05/28 12:11:35;;;;;;;9.10;3.38;;;21.50;71.40;;;;;;5086681;28;20468;-75
2021/05/28 12:14:02;;;;;;;10.40;3.97;;;21.40;73.00;;;;;;5084958;28;20434;-75
2021/05/28 12:16:29;;;;;;;10.30;4.73;;;21.40;73.50;;;;;;5085897;28;20429;-75
2021/05/28 12:18:56;;;;;;;9.40;4.77;;;21.40;72.20;;;;;;5083847;28;20421;-75
2021/05/28 12:21:24;;;;;;;8.98;4.00;;;21.30;71.80;;;;;;5083633;28;20429;-74
2021/05/28 12:23:52;;;;;;;10.10;3.87;;;21.30;72.80;;;;;;5082804;28;20898;-75
2021/05/28 12:26:21;;;;;;;10.30;3.77;;;21.30;73.70;;;;;;5066482;28;20909;-74
2021/05/28 12:28:52;;;;;;;9.32;3.72;;;21.40;72.90;;;;;;5085815;28;20429;-73
2021/05/28 12:31:20;;;;;;;11.70;4.20;;;21.40;74.40;;;;;;5084512;28;20444;-75
2021/05/28 12:33:52;;;;;;;8.75;3.88;;;21.60;73.20;;;;;;5083421;28;20422;-74
2021/05/28 12:36:26;;;;;;;9.75;4.40;;;21.70;73.30;;;;;;5081416;28;22618;-74
2021/05/28 12:38:52;;;;;;;;;;;21.90;71.20;;;;;;5099200;28;20993;-74
2021/05/28 12:41:19;;;;;;;;;;;22.20;70.10;;;;;;5100372;28;19924;-74
2021/05/28 12:43:47;;;;;;;10.13;3.83;;;22.30;69.40;;;;;;5083031;28;21052;-74
2021/05/28 12:46:18;;;;;;;7.50;3.38;;;22.50;68.90;;;;;;5082204;28;20487;-73
2021/05/28 12:48:50;;;;;;;9.50;3.63;;;22.70;68.50;;;;;;5081006;28;20432;-74
2021/05/28 12:51:18;;;;;;;9.10;3.78;;;22.80;68.20;;;;;;5083222;28;20468;-75
2021/05/28 12:53:46;;;;;;;7.22;3.55;;;23.00;66.70;;;;;;5064782;28;20921;-75
2021/05/28 12:56:23;;;;;;;7.57;3.35;;;23.10;65.60;;;;;;5080694;28;20536;-74
2021/05/28 12:58:51;;;;;;;9.05;3.30;;;23.10;65.30;;;;;;5084394;28;21052;-75